createdAt,value
2022-12-29T00:00:57.333Z,11.23
2022-12-29T00:01:57.263Z,11.25
2022-12-29T00:02:57.534Z,11.25
2022-12-29T00:03:57.293Z,11.25
2022-12-29T00:04:57.271Z,11.23
2022-12-29T00:05:57.228Z,11.22
2022-12-29T00:06:57.247Z,11.19
2022-12-29T00:07:57.204Z,11.19
2022-12-29T00:08:57.183Z,11.19
2022-12-29T00:09:57.174Z,11.19
2022-12-29T00:10:57.203Z,11.18
2022-12-29T00:11:57.164Z,11.18
2022-12-29T00:12:57.205Z,11.18
2022-12-29T00:13:57.172Z,11.17
2022-12-29T00:14:57.178Z,11.17
2022-12-29T00:15:57.140Z,11.15
2022-12-29T00:16:57.104Z,11.15
2022-12-29T00:17:57.079Z,11.14
2022-12-29T00:18:57.087Z,11.14
2022-12-29T00:19:57.076Z,11.14
2022-12-29T00:20:57.071Z,11.15
2022-12-29T00:21:57.055Z,11.15
2022-12-29T00:22:57.027Z,11.18
2022-12-29T00:23:57.027Z,11.19
2022-12-29T00:24:57.013Z,11.19
2022-12-29T00:25:57.012Z,11.23
2022-12-29T00:26:57.003Z,11.26
2022-12-29T00:28:01.575Z,11.27
2022-12-29T00:28:58.004Z,11.30
2022-12-29T00:29:56.945Z,11.33
2022-12-29T00:30:56.953Z,11.36
2022-12-29T00:31:56.923Z,11.37
2022-12-29T00:32:56.917Z,11.43
2022-12-29T00:33:56.911Z,11.45
2022-12-29T00:34:56.919Z,11.50
2022-12-29T00:35:56.896Z,11.51
2022-12-29T00:36:56.867Z,11.52
2022-12-29T00:37:56.849Z,11.52
2022-12-29T00:38:56.838Z,11.52
2022-12-29T00:39:56.855Z,11.52
2022-12-29T00:40:56.823Z,11.54
2022-12-29T00:41:56.818Z,11.54
2022-12-29T00:42:56.798Z,11.52
2022-12-29T00:43:56.809Z,11.52
2022-12-29T00:44:56.781Z,11.54
2022-12-29T00:45:56.779Z,11.52
2022-12-29T00:46:56.820Z,11.51
2022-12-29T00:47:56.777Z,11.50
2022-12-29T00:48:56.769Z,11.50
2022-12-29T00:49:56.719Z,11.47
2022-12-29T00:50:56.712Z,11.45
2022-12-29T00:51:56.713Z,11.43
2022-12-29T00:52:56.698Z,11.41
2022-12-29T00:53:56.741Z,11.40
2022-12-29T00:54:56.685Z,11.37
2022-12-29T00:55:56.646Z,11.33
2022-12-29T00:56:56.646Z,11.32
2022-12-29T00:57:56.629Z,11.30
2022-12-29T00:58:56.630Z,11.32
2022-12-29T00:59:56.622Z,11.32
2022-12-29T01:00:56.687Z,11.32
2022-12-29T01:01:56.687Z,11.30
2022-12-29T01:02:56.744Z,11.32
2022-12-29T01:04:01.959Z,11.29
2022-12-29T01:04:57.585Z,11.30
2022-12-29T01:05:56.545Z,11.29
2022-12-29T01:06:56.822Z,11.30
2022-12-29T01:07:56.533Z,11.32
2022-12-29T01:08:56.543Z,11.35
2022-12-29T01:09:56.509Z,11.36
2022-12-29T01:10:56.487Z,11.41
2022-12-29T01:11:56.500Z,11.47
2022-12-29T01:12:56.476Z,11.51
2022-12-29T01:13:56.467Z,11.59
2022-12-29T01:14:56.442Z,11.63
2022-12-29T01:15:56.516Z,11.66
2022-12-29T01:16:56.417Z,11.70
2022-12-29T01:17:56.397Z,11.73
2022-12-29T01:18:56.422Z,11.77
2022-12-29T01:19:56.378Z,11.80
2022-12-29T01:20:56.369Z,11.83
2022-12-29T01:21:56.352Z,11.84
2022-12-29T01:22:56.348Z,11.86
2022-12-29T01:23:56.359Z,11.87
2022-12-29T01:24:56.383Z,11.88
2022-12-29T01:25:56.335Z,11.95
2022-12-29T01:26:56.313Z,11.99
2022-12-29T01:27:56.299Z,11.99
2022-12-29T01:28:56.303Z,12.00
2022-12-29T01:29:56.276Z,12.03
2022-12-29T01:30:56.270Z,12.04
2022-12-29T01:31:56.375Z,12.04
2022-12-29T01:32:56.275Z,12.06
2022-12-29T01:33:56.222Z,12.09
2022-12-29T01:34:56.209Z,12.07
2022-12-29T01:35:56.201Z,12.09
2022-12-29T01:36:56.191Z,12.09
2022-12-29T01:37:56.200Z,12.10
2022-12-29T01:38:56.173Z,12.12
2022-12-29T01:39:56.159Z,12.12
2022-12-29T01:40:56.147Z,12.15
2022-12-29T01:41:56.171Z,12.17
2022-12-29T01:42:56.125Z,12.17
2022-12-29T01:43:56.121Z,12.17
2022-12-29T01:44:56.103Z,12.17
2022-12-29T01:45:56.125Z,12.18
2022-12-29T01:46:56.082Z,12.18
2022-12-29T01:47:56.114Z,12.18
2022-12-29T01:48:56.068Z,12.18
2022-12-29T01:49:56.063Z,12.20
2022-12-29T01:50:56.040Z,12.21
2022-12-29T01:51:56.056Z,12.20
2022-12-29T01:52:56.043Z,12.21
2022-12-29T01:53:56.015Z,12.21
2022-12-29T01:54:55.988Z,12.21
2022-12-29T01:55:56.005Z,12.20
2022-12-29T01:56:55.991Z,12.22
2022-12-29T01:57:55.954Z,12.21
2022-12-29T01:58:55.947Z,12.20
2022-12-29T01:59:55.929Z,12.20
2022-12-29T02:00:56.026Z,12.20
2022-12-29T02:01:56.025Z,12.18
2022-12-29T02:02:55.969Z,12.17
2022-12-29T02:03:55.895Z,12.15
2022-12-29T02:04:58.915Z,12.15
2022-12-29T02:05:56.889Z,12.13
2022-12-29T02:06:55.875Z,12.13
2022-12-29T02:07:55.874Z,12.12
2022-12-29T02:08:55.847Z,12.13
2022-12-29T02:09:55.832Z,12.12
2022-12-29T02:10:55.813Z,12.13
2022-12-29T02:11:55.800Z,12.13
2022-12-29T02:12:55.830Z,12.15
2022-12-29T02:13:55.780Z,12.13
2022-12-29T02:14:55.759Z,12.13
2022-12-29T02:15:55.749Z,12.12
2022-12-29T02:16:55.801Z,12.15
2022-12-29T02:17:55.741Z,12.15
2022-12-29T02:18:55.772Z,12.13
2022-12-29T02:19:55.706Z,12.13
2022-12-29T02:20:55.725Z,12.13
2022-12-29T02:21:55.705Z,12.13
2022-12-29T02:22:55.708Z,12.13
2022-12-29T02:23:55.698Z,12.13
2022-12-29T02:24:55.680Z,12.15
2022-12-29T02:25:55.646Z,12.15
2022-12-29T02:26:55.655Z,12.13
2022-12-29T02:27:55.621Z,12.13
2022-12-29T02:28:56.494Z,12.12
2022-12-29T02:29:55.618Z,12.12
2022-12-29T02:30:55.598Z,12.13
2022-12-29T02:31:55.709Z,12.12
2022-12-29T02:32:55.567Z,12.13
2022-12-29T02:33:55.552Z,12.15
2022-12-29T02:34:55.595Z,12.15
2022-12-29T02:35:55.534Z,12.15
2022-12-29T02:36:55.519Z,12.18
2022-12-29T02:37:55.510Z,12.17
2022-12-29T02:38:55.493Z,12.17
2022-12-29T02:39:55.485Z,12.13
2022-12-29T02:40:55.495Z,12.13
2022-12-29T02:41:55.477Z,12.13
2022-12-29T02:42:55.446Z,12.12
2022-12-29T02:43:55.465Z,12.09
2022-12-29T02:44:55.464Z,12.10
2022-12-29T02:45:56.472Z,12.10
2022-12-29T02:46:55.409Z,12.10
2022-12-29T02:47:55.401Z,12.10
2022-12-29T02:48:55.397Z,12.10
2022-12-29T02:49:55.375Z,12.13
2022-12-29T02:50:55.371Z,12.13
2022-12-29T02:51:55.403Z,12.13
2022-12-29T02:52:55.328Z,12.13
2022-12-29T02:53:55.341Z,12.15
2022-12-29T02:54:55.309Z,12.17
2022-12-29T02:55:55.313Z,12.17
2022-12-29T02:56:55.336Z,12.17
2022-12-29T02:57:55.281Z,12.18
2022-12-29T02:58:55.284Z,12.18
2022-12-29T02:59:55.292Z,12.18
2022-12-29T03:00:55.290Z,12.18
2022-12-29T03:01:55.472Z,12.17
2022-12-29T03:02:55.344Z,12.18
2022-12-29T03:03:55.231Z,12.18
2022-12-29T03:04:55.201Z,12.18
2022-12-29T03:05:55.885Z,12.20
2022-12-29T03:06:55.191Z,12.18
2022-12-29T03:07:55.185Z,12.20
2022-12-29T03:08:55.192Z,12.20
2022-12-29T03:09:55.818Z,12.22
2022-12-29T03:10:55.192Z,12.22
2022-12-29T03:11:55.164Z,12.24
2022-12-29T03:12:55.125Z,12.24
2022-12-29T03:13:55.142Z,12.24
2022-12-29T03:14:55.103Z,12.22
2022-12-29T03:15:55.084Z,12.22
2022-12-29T03:16:55.180Z,12.25
2022-12-29T03:17:55.164Z,12.25
2022-12-29T03:18:55.044Z,12.25
2022-12-29T03:19:55.072Z,12.25
2022-12-29T03:20:55.021Z,12.27
2022-12-29T03:21:55.015Z,12.28
2022-12-29T03:22:55.003Z,12.28
2022-12-29T03:23:55.023Z,12.29
2022-12-29T03:24:54.979Z,12.29
2022-12-29T03:25:54.974Z,12.29
2022-12-29T03:26:54.963Z,12.29
2022-12-29T03:27:54.982Z,12.29
2022-12-29T03:28:54.951Z,12.29
2022-12-29T03:29:54.920Z,12.28
2022-12-29T03:30:54.972Z,12.28
2022-12-29T03:31:54.929Z,12.29
2022-12-29T03:32:54.884Z,12.28
2022-12-29T03:33:54.920Z,12.29
2022-12-29T03:34:54.870Z,12.28
2022-12-29T03:35:54.880Z,12.29
2022-12-29T03:36:54.873Z,12.28
2022-12-29T03:37:54.875Z,12.31
2022-12-29T03:38:54.827Z,12.29
2022-12-29T03:39:54.818Z,12.29
2022-12-29T03:40:54.800Z,12.29
2022-12-29T03:41:54.800Z,12.29
2022-12-29T03:42:54.776Z,12.28
2022-12-29T03:43:54.826Z,12.29
2022-12-29T03:44:54.764Z,12.31
2022-12-29T03:45:54.756Z,12.28
2022-12-29T03:46:54.756Z,12.29
2022-12-29T03:47:54.728Z,12.28
2022-12-29T03:48:54.711Z,12.28
2022-12-29T03:49:54.731Z,12.29
2022-12-29T03:50:54.685Z,12.29
2022-12-29T03:51:54.686Z,12.28
2022-12-29T03:52:54.699Z,12.27
2022-12-29T03:53:54.692Z,12.28
2022-12-29T03:54:54.687Z,12.28
2022-12-29T03:55:54.675Z,12.28
2022-12-29T03:56:54.657Z,12.29
2022-12-29T03:57:54.637Z,12.28
2022-12-29T03:58:54.624Z,12.29
2022-12-29T03:59:54.596Z,12.28
2022-12-29T04:00:54.576Z,12.31
2022-12-29T04:01:54.709Z,12.28
2022-12-29T04:02:54.761Z,12.28
2022-12-29T04:03:54.544Z,12.29
2022-12-29T04:04:54.536Z,12.29
2022-12-29T04:05:54.749Z,12.28
2022-12-29T04:06:54.506Z,12.28
2022-12-29T04:07:54.527Z,12.28
2022-12-29T04:08:54.507Z,12.28
2022-12-29T04:09:54.507Z,12.28
2022-12-29T04:10:54.467Z,12.29
2022-12-29T04:11:54.459Z,12.29
2022-12-29T04:12:55.398Z,12.28
2022-12-29T04:13:54.468Z,12.29
2022-12-29T04:14:54.425Z,12.29
2022-12-29T04:15:54.478Z,12.31
2022-12-29T04:16:54.419Z,12.31
2022-12-29T04:17:54.398Z,12.31
2022-12-29T04:18:54.405Z,12.35
2022-12-29T04:19:54.380Z,12.35
2022-12-29T04:20:54.373Z,12.36
2022-12-29T04:21:54.370Z,12.37
2022-12-29T04:22:54.331Z,12.39
2022-12-29T04:23:54.321Z,12.39
2022-12-29T04:24:54.317Z,12.39
2022-12-29T04:25:54.301Z,12.39
2022-12-29T04:26:54.283Z,12.39
2022-12-29T04:27:54.300Z,12.39
2022-12-29T04:28:54.262Z,12.39
2022-12-29T04:29:54.266Z,12.39
2022-12-29T04:30:54.265Z,12.39
2022-12-29T04:31:54.243Z,12.42
2022-12-29T04:32:54.247Z,12.42
2022-12-29T04:33:54.252Z,12.45
2022-12-29T04:34:54.212Z,12.49
2022-12-29T04:35:54.193Z,12.53
2022-12-29T04:36:54.175Z,12.54
2022-12-29T04:37:54.171Z,12.55
2022-12-29T04:38:54.151Z,12.58
2022-12-29T04:39:54.174Z,12.58
2022-12-29T04:40:54.130Z,12.60
2022-12-29T04:41:54.174Z,12.60
2022-12-29T04:42:54.135Z,12.58
2022-12-29T04:43:54.105Z,12.60
2022-12-29T04:44:54.124Z,12.58
2022-12-29T04:45:54.149Z,12.60
2022-12-29T04:46:54.134Z,12.58
2022-12-29T04:47:54.059Z,12.58
2022-12-29T04:48:54.086Z,12.57
2022-12-29T04:49:54.041Z,12.60
2022-12-29T04:50:54.047Z,12.58
2022-12-29T04:51:54.086Z,12.58
2022-12-29T04:52:54.012Z,12.60
2022-12-29T04:53:54.020Z,12.58
2022-12-29T04:54:53.981Z,12.60
2022-12-29T04:55:53.970Z,12.58
2022-12-29T04:56:53.956Z,12.60
2022-12-29T04:57:53.993Z,12.60
2022-12-29T04:58:53.927Z,12.60
2022-12-29T04:59:53.939Z,12.61
2022-12-29T05:00:53.916Z,12.62
2022-12-29T05:01:53.957Z,12.61
2022-12-29T05:02:54.091Z,12.62
2022-12-29T05:03:54.009Z,12.60
2022-12-29T05:04:53.886Z,12.61
2022-12-29T05:05:54.129Z,12.60
2022-12-29T05:06:53.854Z,12.58
2022-12-29T05:07:53.835Z,12.60
2022-12-29T05:08:53.821Z,12.57
2022-12-29T05:09:53.845Z,12.58
2022-12-29T05:10:53.810Z,12.58
2022-12-29T05:11:53.785Z,12.58
2022-12-29T05:12:53.808Z,12.57
2022-12-29T05:13:54.001Z,12.57
2022-12-29T05:14:53.767Z,12.57
2022-12-29T05:15:53.883Z,12.60
2022-12-29T05:16:53.751Z,12.61
2022-12-29T05:17:54.606Z,12.62
2022-12-29T05:18:53.712Z,12.60
2022-12-29T05:19:53.726Z,12.61
2022-12-29T05:20:53.683Z,12.61
2022-12-29T05:21:53.711Z,12.60
2022-12-29T05:22:53.695Z,12.61
2022-12-29T05:23:53.879Z,12.60
2022-12-29T05:24:53.661Z,12.61
2022-12-29T05:25:53.656Z,12.65
2022-12-29T05:26:53.617Z,12.68
2022-12-29T05:27:53.631Z,12.72
2022-12-29T05:28:53.634Z,12.72
2022-12-29T05:29:53.604Z,12.70
2022-12-29T05:30:53.570Z,12.70
2022-12-29T05:31:53.589Z,12.67
2022-12-29T05:32:53.578Z,12.65
2022-12-29T05:33:53.554Z,12.62
2022-12-29T05:34:53.551Z,12.55
2022-12-29T05:35:53.520Z,12.39
2022-12-29T05:36:53.510Z,12.20
2022-12-29T05:37:53.540Z,12.06
2022-12-29T05:38:53.505Z,11.95
2022-12-29T05:39:53.485Z,11.83
2022-12-29T05:40:53.473Z,11.75
2022-12-29T05:41:53.505Z,11.68
2022-12-29T05:42:53.495Z,11.59
2022-12-29T05:43:53.438Z,11.54
2022-12-29T05:44:53.418Z,11.50
2022-12-29T05:45:53.406Z,11.44
2022-12-29T05:46:53.442Z,11.41
2022-12-29T05:47:53.390Z,11.41
2022-12-29T05:48:53.476Z,11.37
2022-12-29T05:49:53.390Z,11.35
2022-12-29T05:50:53.352Z,11.32
2022-12-29T05:51:53.355Z,11.30
2022-12-29T05:52:53.326Z,11.29
2022-12-29T05:53:53.405Z,11.29
2022-12-29T05:54:53.336Z,11.27
2022-12-29T05:55:53.307Z,11.29
2022-12-29T05:56:53.293Z,11.29
2022-12-29T05:57:53.282Z,11.29
2022-12-29T05:58:53.276Z,11.27
2022-12-29T05:59:54.208Z,11.27
2022-12-29T06:00:53.263Z,11.29
2022-12-29T06:01:53.483Z,11.29
2022-12-29T06:02:53.422Z,11.27
2022-12-29T06:03:53.394Z,11.27
2022-12-29T06:04:53.261Z,11.29
2022-12-29T06:05:53.228Z,11.29
2022-12-29T06:06:53.168Z,11.29
2022-12-29T06:07:53.166Z,11.29
2022-12-29T06:08:53.152Z,11.30
2022-12-29T06:09:53.140Z,11.29
2022-12-29T06:10:53.120Z,11.29
2022-12-29T06:11:53.172Z,11.27
2022-12-29T06:12:53.107Z,11.25
2022-12-29T06:13:53.116Z,11.25
2022-12-29T06:14:53.082Z,11.23
2022-12-29T06:15:53.130Z,11.23
2022-12-29T06:16:53.115Z,11.23
2022-12-29T06:17:53.116Z,11.25
2022-12-29T06:18:53.043Z,11.25
2022-12-29T06:19:53.022Z,11.25
2022-12-29T06:20:53.005Z,11.25
2022-12-29T06:21:53.025Z,11.27
2022-12-29T06:22:52.993Z,11.29
2022-12-29T06:23:53.158Z,11.35
2022-12-29T06:24:52.964Z,11.41
2022-12-29T06:25:52.996Z,11.50
2022-12-29T06:26:52.965Z,11.57
2022-12-29T06:27:52.951Z,11.63
2022-12-29T06:28:52.945Z,11.69
2022-12-29T06:29:52.932Z,11.75
2022-12-29T06:30:52.909Z,11.80
2022-12-29T06:31:52.932Z,11.81
2022-12-29T06:32:52.905Z,11.86
2022-12-29T06:33:52.890Z,11.90
2022-12-29T06:34:52.861Z,11.97
2022-12-29T06:35:52.851Z,11.99
2022-12-29T06:36:52.859Z,12.00
2022-12-29T06:37:52.820Z,12.00
2022-12-29T06:38:52.839Z,12.03
2022-12-29T06:39:52.800Z,12.04
2022-12-29T06:40:52.816Z,12.06
2022-12-29T06:41:52.782Z,12.06
2022-12-29T06:42:52.768Z,12.06
2022-12-29T06:43:52.751Z,12.06
2022-12-29T06:44:52.779Z,12.09
2022-12-29T06:45:52.854Z,12.09
2022-12-29T06:46:52.742Z,12.10
2022-12-29T06:47:52.716Z,12.10
2022-12-29T06:48:52.723Z,12.12
2022-12-29T06:49:52.739Z,12.12
2022-12-29T06:50:52.725Z,12.13
2022-12-29T06:51:52.684Z,12.13
2022-12-29T06:52:52.664Z,12.15
2022-12-29T06:53:52.649Z,12.15
2022-12-29T06:54:52.632Z,12.15
2022-12-29T06:55:52.645Z,12.13
2022-12-29T06:56:52.631Z,12.13
2022-12-29T06:57:52.597Z,12.13
2022-12-29T06:58:52.592Z,12.12
2022-12-29T06:59:52.584Z,12.13
2022-12-29T07:00:52.628Z,12.15
2022-12-29T07:01:52.790Z,12.13
2022-12-29T07:02:52.705Z,12.13
2022-12-29T07:03:52.535Z,12.13
2022-12-29T07:04:52.524Z,12.12
2022-12-29T07:05:52.508Z,12.12
2022-12-29T07:06:52.515Z,12.09
2022-12-29T07:07:52.507Z,12.10
2022-12-29T07:08:52.477Z,12.13
2022-12-29T07:09:52.480Z,12.15
2022-12-29T07:10:52.467Z,12.17
2022-12-29T07:11:52.467Z,12.15
2022-12-29T07:12:52.441Z,12.15
2022-12-29T07:13:52.439Z,12.18
2022-12-29T07:14:52.431Z,12.17
2022-12-29T07:15:52.398Z,12.17
2022-12-29T07:16:52.496Z,12.17
2022-12-29T07:17:52.376Z,12.15
2022-12-29T07:18:52.450Z,12.15
2022-12-29T07:19:52.373Z,12.17
2022-12-29T07:20:52.341Z,12.13
2022-12-29T07:21:52.340Z,12.13
2022-12-29T07:22:52.343Z,12.13
2022-12-29T07:23:52.311Z,12.15
2022-12-29T07:24:52.410Z,12.12
2022-12-29T07:25:52.291Z,12.15
2022-12-29T07:26:52.310Z,12.12
2022-12-29T07:27:52.289Z,12.12
2022-12-29T07:28:52.263Z,12.12
2022-12-29T07:29:52.242Z,12.10
2022-12-29T07:30:52.240Z,12.12
2022-12-29T07:31:52.312Z,12.12
2022-12-29T07:32:52.228Z,12.12
2022-12-29T07:33:52.205Z,12.12
2022-12-29T07:34:52.207Z,12.13
2022-12-29T07:35:52.182Z,12.13
2022-12-29T07:36:52.163Z,12.12
2022-12-29T07:37:52.141Z,12.10
2022-12-29T07:38:52.163Z,12.10
2022-12-29T07:39:52.155Z,12.10
2022-12-29T07:40:52.134Z,12.10
2022-12-29T07:41:52.090Z,12.09
2022-12-29T07:42:52.146Z,12.09
2022-12-29T07:43:52.075Z,12.07
2022-12-29T07:44:52.570Z,12.07
2022-12-29T07:45:52.123Z,12.07
2022-12-29T07:46:56.677Z,12.06
2022-12-29T07:47:53.032Z,12.04
2022-12-29T07:48:52.039Z,12.04
2022-12-29T07:49:52.060Z,12.03
2022-12-29T07:50:52.945Z,12.00
2022-12-29T07:51:52.041Z,12.04
2022-12-29T07:52:51.989Z,12.06
2022-12-29T07:53:51.977Z,12.04
2022-12-29T07:54:51.972Z,12.04
2022-12-29T07:55:51.941Z,12.00
2022-12-29T07:56:51.946Z,11.99
2022-12-29T07:57:51.940Z,11.97
2022-12-29T07:58:51.920Z,11.95
2022-12-29T07:59:51.896Z,11.95
2022-12-29T08:00:51.918Z,11.94
2022-12-29T08:01:52.003Z,11.90
2022-12-29T08:02:51.896Z,11.90
2022-12-29T08:03:57.077Z,11.88
2022-12-29T08:04:52.923Z,11.88
2022-12-29T08:05:51.843Z,11.87
2022-12-29T08:06:51.878Z,11.90
2022-12-29T08:07:51.851Z,11.90
2022-12-29T08:08:51.811Z,11.90
2022-12-29T08:09:51.786Z,11.88
2022-12-29T08:10:51.792Z,11.88
2022-12-29T08:11:51.776Z,11.88
2022-12-29T08:12:51.780Z,11.86
2022-12-29T08:13:51.754Z,11.84
2022-12-29T08:14:51.740Z,11.84
2022-12-29T08:15:51.777Z,11.83
2022-12-29T08:16:51.735Z,11.83
2022-12-29T08:17:52.711Z,11.83
2022-12-29T08:18:52.187Z,11.84
2022-12-29T08:19:57.858Z,11.86
2022-12-29T08:20:55.815Z,11.87
2022-12-29T08:21:51.672Z,11.87
2022-12-29T08:22:51.645Z,11.87
2022-12-29T08:23:51.676Z,11.84
2022-12-29T08:24:51.610Z,11.86
2022-12-29T08:25:51.945Z,11.84
2022-12-29T08:26:53.045Z,11.83
2022-12-29T08:27:51.593Z,11.84
2022-12-29T08:28:51.571Z,11.84
2022-12-29T08:29:51.586Z,11.84
2022-12-29T08:30:51.596Z,11.84
2022-12-29T08:31:51.555Z,11.86
2022-12-29T08:32:51.529Z,11.87
2022-12-29T08:33:51.547Z,11.87
2022-12-29T08:34:51.542Z,11.87
2022-12-29T08:35:51.528Z,11.88
2022-12-29T08:36:51.477Z,11.88
2022-12-29T08:37:51.491Z,11.88
2022-12-29T08:38:51.465Z,11.88
2022-12-29T08:39:51.460Z,11.87
2022-12-29T08:40:51.429Z,11.87
2022-12-29T08:41:51.461Z,11.84
2022-12-29T08:42:51.408Z,11.80
2022-12-29T08:43:51.407Z,11.75
2022-12-29T08:44:51.403Z,11.69
2022-12-29T08:45:51.819Z,11.65
2022-12-29T08:46:51.563Z,11.59
2022-12-29T08:47:51.414Z,11.54
2022-12-29T08:48:51.345Z,11.51
2022-12-29T08:49:51.340Z,11.50
2022-12-29T08:50:51.323Z,11.48
2022-12-29T08:51:51.347Z,11.47
2022-12-29T08:52:51.305Z,11.44
2022-12-29T08:53:51.328Z,11.47
2022-12-29T08:54:51.287Z,11.50
2022-12-29T08:55:51.292Z,11.52
2022-12-29T08:56:51.270Z,11.51
2022-12-29T08:57:52.192Z,11.50
2022-12-29T08:58:51.237Z,11.47
2022-12-29T08:59:51.273Z,11.47
2022-12-29T09:00:51.237Z,11.44
2022-12-29T09:01:51.365Z,11.45
2022-12-29T09:02:51.451Z,11.45
2022-12-29T09:04:52.239Z,11.41
2022-12-29T09:05:51.160Z,11.43
2022-12-29T09:06:51.177Z,11.44
2022-12-29T09:07:51.145Z,11.47
2022-12-29T09:08:51.129Z,11.47
2022-12-29T09:09:51.108Z,11.48
2022-12-29T09:10:51.135Z,11.51
2022-12-29T09:11:51.102Z,11.54
2022-12-29T09:12:51.068Z,11.54
2022-12-29T09:13:51.089Z,11.55
2022-12-29T09:14:51.071Z,11.57
2022-12-29T09:15:51.092Z,11.60
2022-12-29T09:16:51.057Z,11.63
2022-12-29T09:17:51.031Z,11.65
2022-12-29T09:18:51.061Z,11.65
2022-12-29T09:19:51.008Z,11.68
2022-12-29T09:20:50.983Z,11.68
2022-12-29T09:21:50.977Z,11.70
2022-12-29T09:22:50.981Z,11.69
2022-12-29T09:23:51.003Z,11.69
2022-12-29T09:24:50.970Z,11.69
2022-12-29T09:25:50.942Z,11.69
2022-12-29T09:26:50.943Z,11.69
2022-12-29T09:27:50.913Z,11.70
2022-12-29T09:28:50.881Z,11.69
2022-12-29T09:29:50.897Z,11.69
2022-12-29T09:30:51.006Z,11.69
2022-12-29T09:31:50.955Z,11.69
2022-12-29T09:32:55.127Z,11.70
2022-12-29T09:33:50.882Z,11.69
2022-12-29T09:34:50.905Z,11.69
2022-12-29T09:35:50.822Z,11.70
2022-12-29T09:36:51.274Z,11.70
2022-12-29T09:37:50.805Z,11.70
2022-12-29T09:38:50.839Z,11.72
2022-12-29T09:39:54.540Z,11.72
2022-12-29T09:40:50.747Z,11.72
2022-12-29T09:41:50.750Z,11.72
2022-12-29T09:42:50.749Z,11.72
2022-12-29T09:43:50.763Z,11.75
2022-12-29T09:44:50.721Z,11.75
2022-12-29T09:45:50.707Z,11.78
2022-12-29T09:46:50.819Z,11.78
2022-12-29T09:47:50.692Z,11.78
2022-12-29T09:48:50.690Z,11.80
2022-12-29T09:49:50.717Z,11.80
2022-12-29T09:50:50.646Z,11.80
2022-12-29T09:51:51.635Z,11.81
2022-12-29T09:52:50.611Z,11.81
2022-12-29T09:53:50.631Z,11.83
2022-12-29T09:54:58.110Z,11.83
2022-12-29T09:55:51.617Z,11.84
2022-12-29T09:56:50.585Z,11.86
2022-12-29T09:57:50.605Z,11.83
2022-12-29T09:58:50.553Z,11.84
2022-12-29T09:59:50.552Z,11.83
2022-12-29T10:00:55.182Z,11.83
2022-12-29T10:01:51.733Z,11.84
2022-12-29T10:02:50.604Z,11.84
2022-12-29T10:03:50.536Z,11.84
2022-12-29T10:04:50.519Z,11.86
2022-12-29T10:05:50.473Z,11.86
2022-12-29T10:07:27.546Z,11.86
2022-12-29T10:07:51.460Z,11.86
2022-12-29T10:08:50.442Z,11.86
2022-12-29T10:09:50.475Z,11.88
2022-12-29T10:10:50.421Z,11.86
2022-12-29T10:11:50.423Z,11.86
2022-12-29T10:12:50.419Z,11.86
2022-12-29T10:13:50.444Z,11.86
2022-12-29T10:14:50.382Z,11.87
2022-12-29T10:15:50.435Z,11.88
2022-12-29T10:16:50.361Z,11.87
2022-12-29T10:17:50.358Z,11.88
2022-12-29T10:18:50.334Z,11.87
2022-12-29T10:19:50.368Z,11.88
2022-12-29T10:20:50.570Z,11.88
2022-12-29T10:21:50.530Z,11.90
2022-12-29T10:22:50.317Z,11.91
2022-12-29T10:23:50.334Z,11.91
2022-12-29T10:24:50.258Z,11.91
2022-12-29T10:25:50.275Z,11.94
2022-12-29T10:26:50.287Z,11.95
2022-12-29T10:27:50.238Z,11.97
2022-12-29T10:28:50.211Z,11.99
2022-12-29T10:29:50.206Z,12.00
2022-12-29T10:30:50.221Z,12.00
2022-12-29T10:31:50.223Z,12.00
2022-12-29T10:32:50.167Z,12.00
2022-12-29T10:33:50.161Z,11.99
2022-12-29T10:34:50.181Z,11.99
2022-12-29T10:35:50.147Z,11.99
2022-12-29T10:36:50.137Z,12.00
2022-12-29T10:37:50.156Z,11.97
2022-12-29T10:38:50.111Z,11.99
2022-12-29T10:39:50.101Z,11.97
2022-12-29T10:40:50.114Z,11.99
2022-12-29T10:41:50.084Z,11.99
2022-12-29T10:42:50.078Z,11.97
2022-12-29T10:43:50.057Z,12.00
2022-12-29T10:44:50.045Z,12.00
2022-12-29T10:45:50.096Z,11.99
2022-12-29T10:46:50.050Z,12.00
2022-12-29T10:47:50.022Z,12.03
2022-12-29T10:48:50.029Z,12.03
2022-12-29T10:49:49.992Z,12.06
2022-12-29T10:50:49.973Z,12.06
2022-12-29T10:51:49.991Z,12.06
2022-12-29T10:52:49.974Z,12.04
2022-12-29T10:53:49.946Z,12.02
2022-12-29T10:54:49.941Z,12.03
2022-12-29T10:55:49.927Z,12.03
2022-12-29T10:56:49.930Z,12.04
2022-12-29T10:57:49.906Z,12.03
2022-12-29T10:58:50.067Z,12.03
2022-12-29T10:59:49.866Z,12.03
2022-12-29T11:00:49.962Z,12.04
2022-12-29T11:01:49.997Z,12.03
2022-12-29T11:02:50.157Z,12.03
2022-12-29T11:03:49.830Z,12.03
2022-12-29T11:04:49.857Z,12.03
2022-12-29T11:05:49.817Z,12.03
2022-12-29T11:06:49.801Z,12.02
2022-12-29T11:07:49.778Z,12.03
2022-12-29T11:08:49.762Z,12.04
2022-12-29T11:09:49.757Z,12.03
2022-12-29T11:10:49.770Z,12.04
2022-12-29T11:11:49.765Z,12.02
2022-12-29T11:12:49.729Z,12.02
2022-12-29T11:13:49.711Z,12.02
2022-12-29T11:14:49.718Z,12.02
2022-12-29T11:15:49.724Z,12.02
2022-12-29T11:16:49.747Z,12.02
2022-12-29T11:17:49.703Z,12.00
2022-12-29T11:18:49.659Z,12.02
2022-12-29T11:19:49.680Z,12.02
2022-12-29T11:20:49.654Z,12.03
2022-12-29T11:21:49.706Z,12.02
2022-12-29T11:22:49.654Z,12.02
2022-12-29T11:23:49.594Z,12.03
2022-12-29T11:24:49.607Z,12.00
2022-12-29T11:25:49.627Z,12.02
2022-12-29T11:26:49.581Z,12.03
2022-12-29T11:27:49.574Z,12.03
2022-12-29T11:28:50.542Z,12.04
2022-12-29T11:29:50.448Z,12.04
2022-12-29T11:30:49.537Z,12.04
2022-12-29T11:31:49.598Z,12.04
2022-12-29T11:32:49.552Z,12.04
2022-12-29T11:33:49.742Z,12.06
2022-12-29T11:34:49.484Z,12.07
2022-12-29T11:35:49.475Z,12.07
2022-12-29T11:36:49.474Z,12.09
2022-12-29T11:37:49.461Z,12.09
2022-12-29T11:38:49.470Z,12.09
2022-12-29T11:39:49.428Z,12.07
2022-12-29T11:40:50.381Z,12.09
2022-12-29T11:41:49.398Z,12.09
2022-12-29T11:42:50.387Z,12.09
2022-12-29T11:43:49.411Z,12.09
2022-12-29T11:44:49.383Z,12.10
2022-12-29T11:45:50.399Z,12.10
2022-12-29T11:46:49.375Z,12.09
2022-12-29T11:47:49.378Z,12.10
2022-12-29T11:48:49.547Z,12.10
2022-12-29T11:49:49.318Z,12.09
2022-12-29T11:50:49.317Z,12.09
2022-12-29T11:51:49.303Z,12.07
2022-12-29T11:52:49.301Z,12.06
2022-12-29T11:53:49.322Z,12.06
2022-12-29T11:54:49.265Z,12.06
2022-12-29T11:55:49.420Z,12.04
2022-12-29T11:56:49.258Z,12.06
2022-12-29T11:57:50.168Z,12.06
2022-12-29T11:58:49.218Z,12.04
2022-12-29T11:59:49.253Z,12.07
2022-12-29T12:00:50.152Z,12.07
2022-12-29T12:01:49.238Z,12.10
2022-12-29T12:02:49.226Z,12.12
2022-12-29T12:03:49.246Z,12.12
2022-12-29T12:04:49.162Z,12.12
2022-12-29T12:05:49.182Z,12.15
2022-12-29T12:06:49.136Z,12.13
2022-12-29T12:07:49.110Z,12.15
2022-12-29T12:08:49.124Z,12.15
2022-12-29T12:09:49.111Z,12.13
2022-12-29T12:10:49.086Z,12.13
2022-12-29T12:11:50.532Z,12.12
2022-12-29T12:12:49.067Z,12.12
2022-12-29T12:13:49.242Z,12.12
2022-12-29T12:14:49.056Z,12.10
2022-12-29T12:15:52.807Z,12.09
2022-12-29T12:16:50.077Z,12.09
2022-12-29T12:17:49.008Z,12.07
2022-12-29T12:18:49.416Z,12.04
2022-12-29T12:19:49.017Z,12.06
2022-12-29T12:20:49.021Z,12.06
2022-12-29T12:21:48.958Z,12.06
2022-12-29T12:22:48.945Z,12.04
2022-12-29T12:23:48.925Z,12.06
2022-12-29T12:24:48.910Z,12.04
2022-12-29T12:25:48.936Z,12.02
2022-12-29T12:26:48.908Z,12.02
2022-12-29T12:27:48.890Z,12.02
2022-12-29T12:28:48.897Z,12.00
2022-12-29T12:29:49.694Z,11.99
2022-12-29T12:30:48.953Z,11.95
2022-12-29T12:31:48.889Z,11.94
2022-12-29T12:32:48.846Z,11.94
2022-12-29T12:33:48.854Z,11.90
2022-12-29T12:34:48.846Z,11.90
2022-12-29T12:35:48.823Z,11.88
2022-12-29T12:36:48.819Z,11.90
2022-12-29T12:37:48.793Z,11.88
2022-12-29T12:38:48.783Z,11.88
2022-12-29T12:39:48.913Z,11.88
2022-12-29T12:40:49.531Z,11.88
2022-12-29T12:41:48.743Z,11.88
2022-12-29T12:42:50.685Z,11.88
2022-12-29T12:43:49.392Z,11.87
2022-12-29T12:44:48.705Z,11.87
2022-12-29T12:45:48.810Z,11.88
2022-12-29T12:46:48.726Z,11.87
2022-12-29T12:47:48.716Z,11.88
2022-12-29T12:48:49.492Z,11.87
2022-12-29T12:49:49.605Z,11.87
2022-12-29T12:50:48.672Z,11.86
2022-12-29T12:51:50.065Z,11.87
2022-12-29T12:52:48.810Z,11.87
2022-12-29T12:53:49.460Z,11.86